Time;durP1;ratioP1;P1;durP2;ratioP2;P2;SDS_P1;SDS_P2;PMS_P1;PMS_P2;Temp;Humidity;BMP_temperature;BMP_pressure;BME280_temperature;BME280_humidity;BME280_pressure;Samples;Min_cycle;Max_cycle;Signal;HPM_P1;HPM_P2
2023/05/28 00:04:07;;;;;;;7.30;5.00;;;;;;;9.92;67.38;99286.29;225025;1286;25371;-72
2023/05/28 00:09:16;;;;;;;9.30;5.70;;;;;;;9.83;67.68;99284.63;225030;1280;22543;-72
2023/05/28 00:14:36;;;;;;;9.30;4.80;;;;;;;9.74;67.70;99278.31;225088;1286;24241;-72
2023/05/28 00:19:43;;;;;;;11.50;6.30;;;;;;;9.64;68.04;99276.71;225150;1280;22550;-72
2023/05/28 00:24:52;;;;;;;8.40;4.90;;;;;;;9.55;68.30;99271.06;224974;1286;22520;-72
2023/05/28 00:30:07;;;;;;;9.80;5.40;;;;;;;9.46;68.49;99265.70;225098;1286;22590;-71
2023/05/28 00:35:26;;;;;;;7.80;5.40;;;;;;;9.37;68.68;99265.48;225283;1282;22540;-71
2023/05/28 00:40:55;;;;;;;;;;;;;;;;;;;;;
2023/05/28 00:46:21;;;;;;;11.30;5.60;;;;;;;9.15;68.84;99256.77;225280;1284;22548;-71
2023/05/28 00:51:42;;;;;;;8.40;5.30;;;;;;;9.06;69.38;99251.52;225287;1284;22586;-72
2023/05/28 00:56:48;;;;;;;8.80;5.40;;;;;;;8.96;69.55;99256.93;225246;1284;22592;-70
2023/05/28 01:01:58;;;;;;;9.40;5.40;;;;;;;8.87;69.73;99251.67;225271;1281;22591;-70
2023/05/28 01:07:04;;;;;;;9.80;5.50;;;;;;;8.78;70.05;99245.98;225138;1284;22543;-70
2023/05/28 01:12:21;;;;;;;11.60;6.30;;;;;;;8.69;70.43;99242.52;225217;1273;22543;-70
2023/05/28 01:17:33;;;;;;;10.70;5.60;;;;;;;8.61;70.49;99233.85;225260;1284;22542;-70
2023/05/28 01:23:33;;;;;;;;;;;;;;;;;;;;;
2023/05/28 01:28:52;;;;;;;10.40;5.50;;;;;;;8.50;70.83;99224.02;225222;1284;22559;-71
2023/05/28 01:34:10;;;;;;;8.50;5.50;;;;;;;8.48;71.13;99226.20;225178;1284;22550;-71
2023/05/28 01:39:42;;;;;;;10.30;5.50;;;;;;;8.43;71.15;99229.83;225239;1283;22541;-70
2023/05/28 01:52:11;;;;;;;;;;;;;;;;;;;;;
2023/05/28 01:57:55;;;;;;;10.20;5.20;;;;;;;8.27;71.64;99234.55;225242;1284;22549;-70
2023/05/28 02:03:34;;;;;;;10.50;5.60;;;;;;;8.21;71.69;99231.01;225235;1284;22566;-70
2023/05/28 02:08:55;;;;;;;9.10;5.80;;;;;;;8.12;71.62;99226.77;225214;1280;25334;-70
2023/05/28 02:14:14;;;;;;;8.10;5.50;;;;;;;8.06;71.92;99229.20;225295;1277;22550;-71
2023/05/28 02:19:28;;;;;;;9.80;5.30;;;;;;;8.01;71.07;99222.88;225183;1278;25914;-70
2023/05/28 02:24:33;;;;;;;9.80;5.00;;;;;;;7.99;71.34;99219.20;225253;1277;22607;-70
2023/05/28 02:29:52;;;;;;;10.90;4.50;;;;;;;7.96;71.42;99220.60;225215;1281;26370;-70
2023/05/28 02:35:03;;;;;;;7.80;4.30;;;;;;;7.93;71.72;99218.27;225256;1284;22502;-70
2023/05/28 02:40:14;;;;;;;9.70;4.10;;;;;;;7.93;71.58;99217.65;225271;1284;22578;-71
2023/05/28 02:45:49;;;;;;;8.10;4.40;;;;;;;7.93;71.63;99217.95;225282;1284;22540;-71
2023/05/28 02:51:08;;;;;;;7.10;4.40;;;;;;;7.90;71.50;99222.45;225153;1280;22597;-71
2023/05/28 02:56:46;;;;;;;7.60;4.10;;;;;;;7.87;71.43;99225.95;225215;1285;24249;-71
2023/05/28 03:02:50;;;;;;;7.40;4.20;;;;;;;7.86;71.62;99223.47;225201;1283;22874;-71
2023/05/28 03:08:04;;;;;;;7.60;4.00;;;;;;;7.87;71.57;99216.32;225148;1285;22728;-70
2023/05/28 03:13:28;;;;;;;7.00;3.40;;;;;;;7.90;71.29;99210.73;225236;1284;22547;-72
2023/05/28 03:18:33;;;;;;;6.90;3.70;;;;;;;7.98;71.51;99213.33;225180;1280;22595;-71
2023/05/28 03:23:39;;;;;;;6.40;3.80;;;;;;;8.17;71.04;99203.98;225293;1281;22930;-71
2023/05/28 03:29:01;;;;;;;6.90;3.50;;;;;;;8.48;70.94;99204.42;225215;1284;22584;-74
2023/05/28 03:34:35;;;;;;;7.80;3.30;;;;;;;8.77;70.41;99200.23;225239;1278;22847;-72
2023/05/28 03:39:56;;;;;;;5.30;3.30;;;;;;;9.00;69.99;99199.24;225217;1284;22550;-71
2023/05/28 03:45:08;;;;;;;5.20;3.30;;;;;;;9.26;69.37;99200.46;225227;1267;22557;-71
2023/05/28 03:50:11;;;;;;;5.80;3.40;;;;;;;9.54;69.44;99204.84;225261;1277;22543;-72
2023/05/28 03:55:18;;;;;;;7.20;3.50;;;;;;;9.79;69.14;99211.05;225266;1284;22637;-70
2023/05/28 04:00:38;;;;;;;6.20;3.90;;;;;;;9.98;68.70;99211.18;225276;1284;24935;-71
2023/05/28 04:05:48;;;;;;;5.00;3.30;;;;;;;10.10;68.53;99206.93;225303;1278;22591;-71
2023/05/28 04:11:02;;;;;;;5.80;3.20;;;;;;;10.20;67.98;99205.48;225283;1277;22556;-72
2023/05/28 04:16:10;;;;;;;6.00;3.00;;;;;;;10.29;67.94;99205.21;225278;1281;22552;-71
2023/05/28 04:21:36;;;;;;;;;;;;;;;;;;;;;
2023/05/28 04:26:51;;;;;;;6.70;3.50;;;;;;;10.36;67.91;99208.58;225289;1278;22543;-71
2023/05/28 04:32:00;;;;;;;8.00;3.50;;;;;;;10.41;67.92;99213.77;225265;1284;22556;-71
2023/05/28 04:37:04;;;;;;;4.30;3.00;;;;;;;10.47;68.01;99212.59;225241;1282;22547;-72
2023/05/28 04:42:22;;;;;;;6.30;3.20;;;;;;;10.52;68.12;99209.55;225297;1280;22546;-71
2023/05/28 04:47:28;;;;;;;4.10;2.90;;;;;;;10.61;68.32;99206.60;225293;1284;22546;-71
2023/05/28 04:52:35;;;;;;;4.20;2.80;;;;;;;10.71;68.23;99204.46;225284;1280;22590;-72
2023/05/28 04:57:44;;;;;;;6.40;3.20;;;;;;;10.84;68.17;99201.81;225255;1277;22566;-70
2023/05/28 05:02:54;;;;;;;6.00;3.00;;;;;;;11.00;68.09;99200.08;225258;1284;22564;-71
2023/05/28 05:07:58;;;;;;;5.00;3.10;;;;;;;11.13;68.07;99201.63;225216;1279;22549;-70
2023/05/28 05:13:08;;;;;;;;;;;;;;;11.28;68.02;99201.10;225289;1283;24233;-71
2023/05/28 05:18:20;;;;;;;6.20;3.50;;;;;;;11.45;68.00;99202.77;225302;1284;22563;-70
2023/05/28 05:23:30;;;;;;;4.80;3.10;;;;;;;11.61;67.89;99203.26;225330;1284;23128;-71
2023/05/28 05:28:36;;;;;;;5.80;2.90;;;;;;;11.80;67.63;99204.17;225335;1278;22556;-71
2023/05/28 05:33:41;;;;;;;5.60;3.00;;;;;;;11.99;67.22;99201.55;225292;1284;22600;-71
2023/05/28 05:39:15;;;;;;;4.80;2.90;;;;;;;12.22;66.84;99198.38;225272;1278;22543;-71
2023/05/28 05:44:39;;;;;;;5.10;2.50;;;;;;;12.44;66.39;99198.07;225285;1277;22563;-71
2023/05/28 05:49:49;;;;;;;3.90;2.20;;;;;;;12.63;66.05;99195.38;225243;1283;22554;-71
2023/05/28 05:54:51;;;;;;;3.60;2.20;;;;;;;12.83;65.60;99200.52;225241;1283;22543;-70
2023/05/28 06:00:14;;;;;;;5.40;2.40;;;;;;;13.00;64.86;99202.29;225272;1284;22560;-70
2023/05/28 06:05:26;;;;;;;3.40;2.00;;;;;;;13.18;64.46;99197.12;225283;1280;22611;-71
2023/05/28 06:10:47;;;;;;;4.50;2.10;;;;;;;13.37;64.08;99196.94;225307;1281;22539;-70
2023/05/28 06:15:54;;;;;;;3.90;2.10;;;;;;;13.57;63.77;99197.11;225318;1278;22533;-72
2023/05/28 06:20:59;;;;;;;5.60;2.60;;;;;;;13.76;63.27;99198.84;225273;1277;22583;-70
2023/05/28 06:26:18;;;;;;;4.70;2.30;;;;;;;13.99;63.35;99201.18;225280;1284;22562;-71
2023/05/28 06:31:30;;;;;;;4.20;1.90;;;;;;;14.23;62.93;99201.20;225236;1283;25815;-71
2023/05/28 06:36:35;;;;;;;3.60;2.10;;;;;;;14.45;62.30;99201.96;225285;1278;22546;-71
2023/05/28 06:41:39;;;;;;;3.50;1.70;;;;;;;14.66;61.38;99202.31;225305;1283;22540;-71
2023/05/28 06:46:52;;;;;;;3.20;1.80;;;;;;;14.86;60.93;99200.69;225282;1282;22555;-71
2023/05/28 06:52:04;;;;;;;2.10;1.60;;;;;;;15.08;60.17;99202.22;225308;1277;25030;-73
2023/05/28 06:57:23;;;;;;;4.00;1.80;;;;;;;15.30;59.08;99201.87;225293;1284;22547;-71
2023/05/28 07:02:28;;;;;;;5.20;1.70;;;;;;;15.46;58.51;99192.40;225295;1278;22542;-72
2023/05/28 07:07:48;;;;;;;3.10;1.50;;;;;;;15.60;57.61;99183.74;225263;1278;22558;-72
2023/05/28 07:12:51;;;;;;;2.30;1.50;;;;;;;15.84;57.52;99184.14;225347;1280;23355;-72
2023/05/28 07:18:06;;;;;;;2.90;1.40;;;;;;;16.10;56.88;99184.46;225299;1284;22548;-70
2023/05/28 07:23:11;;;;;;;2.40;1.20;;;;;;;16.37;56.45;99180.17;225292;1280;22559;-70
2023/05/28 07:28:37;;;;;;;;;;;;;;;;;;;;;
2023/05/28 07:33:47;;;;;;;2.30;1.20;;;;;;;16.77;55.70;99171.59;225331;1284;22551;-72
2023/05/28 07:39:28;;;;;;;2.30;1.50;;;;;;;16.97;54.93;99166.70;225214;1280;24361;-70
2023/05/28 07:44:31;;;;;;;4.60;1.70;;;;;;;17.14;54.43;99169.20;225286;1277;22554;-71
2023/05/28 07:49:34;;;;;;;2.70;1.40;;;;;;;17.30;54.07;99168.92;225211;1284;22659;-72
2023/05/28 07:54:39;;;;;;;2.50;1.20;;;;;;;17.47;53.32;99165.36;225243;1283;22554;-72
2023/05/28 07:59:43;;;;;;;3.70;1.50;;;;;;;17.60;52.67;99158.77;225277;1283;26312;-72
2023/05/28 08:04:49;;;;;;;1.80;1.40;;;;;;;17.77;52.22;99163.23;225247;1280;22547;-72
2023/05/28 08:09:54;;;;;;;2.80;1.30;;;;;;;17.85;51.10;99161.55;225255;1274;22551;-72
2023/05/28 08:14:57;;;;;;;1.90;1.50;;;;;;;17.98;51.12;99159.58;225306;1278;22708;-70
2023/05/28 08:20:00;;;;;;;3.50;1.60;;;;;;;18.09;50.49;99160.59;225278;1280;22577;-72
2023/05/28 08:25:25;;;;;;;2.10;1.60;;;;;;;18.16;49.46;99156.81;225272;1284;22548;-73
2023/05/28 08:30:36;;;;;;;4.30;1.60;;;;;;;18.20;49.24;99151.75;225278;1284;22557;-71
2023/05/28 08:35:46;;;;;;;3.50;1.60;;;;;;;18.26;49.27;99148.24;225213;1283;22587;-71
2023/05/28 08:40:55;;;;;;;3.70;1.70;;;;;;;18.46;49.50;99148.60;225151;1278;22562;-72
2023/05/28 08:45:59;;;;;;;4.70;1.50;;;;;;;18.59;48.63;99152.36;225226;1284;24292;-71
2023/05/28 08:51:08;;;;;;;4.60;1.70;;;;;;;18.60;48.28;99146.09;225199;1283;22507;-73
2023/05/28 08:56:13;;;;;;;2.60;1.60;;;;;;;18.71;48.87;99143.70;225230;1277;22550;-71
2023/05/28 09:01:17;;;;;;;2.30;1.50;;;;;;;18.86;48.80;99142.77;225176;1284;22540;-71
2023/05/28 09:06:31;;;;;;;5.20;1.80;;;;;;;19.05;48.41;99134.77;225296;1284;22589;-71
2023/05/28 09:11:34;;;;;;;2.20;1.80;;;;;;;19.21;47.97;99131.14;225264;1282;22582;-72
2023/05/28 09:16:42;;;;;;;5.70;1.90;;;;;;;19.41;48.48;99122.88;225257;1283;22564;-72
2023/05/28 09:21:55;;;;;;;2.50;1.90;;;;;;;19.65;48.39;99112.84;225282;1283;23321;-71
2023/05/28 09:27:19;;;;;;;2.70;1.50;;;;;;;19.75;47.62;99105.88;225206;1280;22539;-72
2023/05/28 09:32:23;;;;;;;2.90;1.70;;;;;;;19.86;47.72;99101.66;225232;1283;22661;-72
2023/05/28 09:37:29;;;;;;;3.20;1.80;;;;;;;20.04;47.49;99094.69;225261;1269;22607;-72
2023/05/28 09:42:43;;;;;;;3.10;1.80;;;;;;;20.25;47.51;99095.27;225230;1283;22573;-71
2023/05/28 09:47:46;;;;;;;4.20;1.70;;;;;;;20.37;47.13;99096.94;225132;1284;22538;-72
2023/05/28 09:52:54;;;;;;;2.20;1.70;;;;;;;20.41;47.14;99088.36;225270;1278;22584;-72
2023/05/28 09:58:06;;;;;;;2.30;1.60;;;;;;;20.59;47.62;99080.75;225258;1284;22566;-72
2023/05/28 10:03:25;;;;;;;2.70;1.70;;;;;;;20.77;47.15;99081.77;225277;1268;22548;-71
2023/05/28 10:08:28;;;;;;;2.50;1.70;;;;;;;20.90;46.94;99081.70;225266;1278;22579;-71
2023/05/28 10:13:32;;;;;;;1.70;1.40;;;;;;;20.99;46.87;99077.84;225260;1283;22566;-71
2023/05/28 10:18:35;;;;;;;5.50;1.70;;;;;;;21.06;46.49;99082.45;225286;1282;25339;-72
2023/05/28 10:23:42;;;;;;;2.80;1.50;;;;;;;21.23;46.50;99074.36;225297;1282;22579;-72
2023/05/28 10:28:44;;;;;;;3.90;1.80;;;;;;;21.40;45.86;99076.61;225168;1280;22671;-72
2023/05/28 10:33:50;;;;;;;3.20;1.60;;;;;;;21.38;45.29;99075.41;225177;1278;22633;-72
2023/05/28 10:38:59;;;;;;;3.10;1.60;;;;;;;21.34;44.51;99069.50;224950;1278;321958;-72
2023/05/28 10:44:07;;;;;;;3.70;1.90;;;;;;;21.29;44.62;99061.65;225194;1283;22569;-72
2023/05/28 10:49:20;;;;;;;2.80;1.40;;;;;;;21.40;45.15;99062.17;225263;1283;22558;-72
2023/05/28 10:54:55;;;;;;;3.90;1.80;;;;;;;21.63;44.96;99063.54;225197;1281;23623;-72
2023/05/28 11:00:06;;;;;;;2.40;1.70;;;;;;;21.85;44.77;99066.04;225199;1284;22543;-71
2023/05/28 11:05:09;;;;;;;2.90;1.60;;;;;;;21.94;44.26;99064.02;225251;1281;24242;-72
2023/05/28 11:10:17;;;;;;;4.30;2.10;;;;;;;21.98;43.90;99065.52;225242;1284;22534;-72
2023/05/28 11:15:22;;;;;;;4.00;1.60;;;;;;;22.01;43.64;99054.85;225247;1281;22550;-72
2023/05/28 11:20:25;;;;;;;2.20;2.00;;;;;;;22.10;43.83;99055.31;225249;1283;22551;-72
2023/05/28 11:25:28;;;;;;;2.70;1.60;;;;;;;22.21;43.26;99053.58;225221;1284;22558;-72
2023/05/28 11:30:36;;;;;;;3.90;1.60;;;;;;;22.38;43.55;99052.04;225223;1284;24374;-72
2023/05/28 11:35:42;;;;;;;2.00;1.80;;;;;;;22.55;42.82;99045.81;225235;1283;24280;-71
2023/05/28 11:40:44;;;;;;;3.80;1.90;;;;;;;22.71;42.66;99046.19;225211;1284;22557;-71
2023/05/28 11:45:47;;;;;;;3.90;1.70;;;;;;;22.80;42.45;99035.87;225176;1284;22577;-72
2023/05/28 11:50:56;;;;;;;2.20;1.50;;;;;;;22.89;42.71;99028.69;225208;1282;22549;-72
2023/05/28 11:55:59;;;;;;;5.10;2.20;;;;;;;23.06;42.30;99032.48;225252;1278;22640;-71
2023/05/28 12:01:01;;;;;;;5.00;2.40;;;;;;;23.12;42.19;99026.39;225156;1284;22551;-71
2023/05/28 12:06:03;;;;;;;2.50;1.60;;;;;;;23.20;42.48;99022.58;225207;1280;22539;-72
2023/05/28 12:11:08;;;;;;;2.20;2.00;;;;;;;23.26;42.13;99018.51;225238;1284;22705;-72
2023/05/28 12:16:15;;;;;;;3.00;1.90;;;;;;;23.27;41.98;99022.94;225248;1282;22562;-72
2023/05/28 12:21:20;;;;;;;2.20;1.60;;;;;;;23.21;41.79;99024.95;225247;1284;22874;-72
2023/05/28 12:26:22;;;;;;;4.20;2.00;;;;;;;23.24;41.36;99019.36;225208;1281;23076;-73
2023/05/28 12:31:28;;;;;;;4.40;2.00;;;;;;;23.17;41.22;99011.23;225256;1278;25407;-72
2023/05/28 12:36:32;;;;;;;3.20;2.10;;;;;;;23.18;41.63;99009.63;225221;1282;24347;-72
2023/05/28 12:41:35;;;;;;;4.30;2.30;;;;;;;23.18;41.78;99002.17;225270;1284;23109;-72
2023/05/28 12:46:37;;;;;;;2.70;2.00;;;;;;;23.24;41.91;99000.32;225280;1284;22554;-72
2023/05/28 12:51:39;;;;;;;5.30;2.70;;;;;;;23.20;41.55;98995.23;225276;1284;22562;-72
2023/05/28 12:56:41;;;;;;;4.70;2.30;;;;;;;23.23;41.85;98996.44;225242;1284;23021;-72
2023/05/28 13:01:44;;;;;;;3.30;2.30;;;;;;;23.31;41.96;98985.35;225201;1281;22604;-71
2023/05/28 13:06:51;;;;;;;5.10;2.50;;;;;;;23.35;41.53;98987.35;225186;1281;22576;-72
2023/05/28 13:11:55;;;;;;;3.60;1.70;;;;;;;23.25;41.23;98985.70;225273;1281;22529;-73
2023/05/28 13:16:59;;;;;;;3.20;2.20;;;;;;;23.28;41.42;98980.77;225215;1281;22538;-71
2023/05/28 13:22:02;;;;;;;5.70;2.30;;;;;;;23.32;41.91;98977.10;225244;1281;22619;-72
2023/05/28 13:27:05;;;;;;;7.70;2.60;;;;;;;23.38;41.77;98970.27;225182;1281;23312;-72
2023/05/28 13:32:08;;;;;;;5.20;2.50;;;;;;;23.47;42.07;98959.44;225275;1284;22616;-71
2023/05/28 13:37:10;;;;;;;6.10;2.30;;;;;;;23.60;42.14;98952.42;225238;1284;24946;-72
2023/05/28 13:42:12;;;;;;;3.00;1.90;;;;;;;23.71;41.90;98958.10;225271;1277;22549;-73
2023/05/28 13:47:15;;;;;;;3.60;2.30;;;;;;;23.66;41.12;98945.41;225224;1281;22560;-71
2023/05/28 13:52:18;;;;;;;3.00;2.30;;;;;;;23.62;41.37;98944.16;225254;1284;24627;-71
2023/05/28 13:57:21;;;;;;;3.80;2.50;;;;;;;23.63;41.12;98938.27;225198;1281;22557;-72
2023/05/28 14:02:23;;;;;;;3.90;2.00;;;;;;;23.65;41.42;98935.10;225219;1284;22961;-73
2023/05/28 14:07:25;;;;;;;3.70;2.50;;;;;;;23.64;41.91;98940.22;225190;1284;22610;-72
2023/05/28 14:12:27;;;;;;;3.30;2.10;;;;;;;23.69;41.44;98930.41;225240;1279;24281;-71
2023/05/28 14:17:29;;;;;;;4.00;2.40;;;;;;;23.71;41.30;98921.57;225251;1283;22596;-72
2023/05/28 14:22:33;;;;;;;6.00;2.30;;;;;;;23.78;41.26;98923.02;225175;1284;22568;-72
2023/05/28 14:27:36;;;;;;;4.70;2.50;;;;;;;23.79;40.87;98922.69;225218;1281;22618;-73
2023/05/28 14:32:39;;;;;;;3.00;2.50;;;;;;;23.88;41.17;98916.55;225218;1281;23480;-72
2023/05/28 14:37:42;;;;;;;4.20;2.40;;;;;;;23.86;40.75;98915.68;225264;1284;22672;-72
2023/05/28 14:42:45;;;;;;;7.30;2.40;;;;;;;23.86;40.71;98914.70;225175;1282;24248;-72
2023/05/28 14:47:47;;;;;;;4.30;2.80;;;;;;;23.94;41.23;98906.38;225241;1284;22561;-72
2023/05/28 14:52:51;;;;;;;3.30;2.40;;;;;;;24.10;41.04;98901.23;225209;1284;22569;-73
2023/05/28 14:57:53;;;;;;;4.70;2.30;;;;;;;24.11;40.67;98900.89;225280;1284;22619;-72
2023/05/28 15:02:58;;;;;;;4.00;2.50;;;;;;;24.06;40.79;98903.38;225190;1284;22539;-71
2023/05/28 15:08:01;;;;;;;3.80;2.80;;;;;;;23.98;40.15;98897.36;225240;1284;22539;-71
2023/05/28 15:13:04;;;;;;;4.00;2.40;;;;;;;23.90;40.24;98895.90;225187;1283;22546;-72
2023/05/28 15:18:07;;;;;;;3.30;2.60;;;;;;;23.92;40.76;98897.42;225196;1283;22612;-71
2023/05/28 15:23:09;;;;;;;3.40;2.70;;;;;;;23.95;41.06;98892.89;225244;1284;25397;-71
2023/05/28 15:28:11;;;;;;;5.20;2.30;;;;;;;23.81;40.65;98891.66;225233;1284;22601;-72
2023/05/28 15:33:15;;;;;;;3.40;2.80;;;;;;;23.65;40.54;98890.96;225196;1281;23044;-72
2023/05/28 15:38:17;;;;;;;3.30;2.30;;;;;;;23.55;40.60;98885.41;225206;1281;22672;-72
2023/05/28 15:43:20;;;;;;;3.30;2.60;;;;;;;23.58;41.05;98879.52;225156;1281;22586;-71
2023/05/28 15:48:22;;;;;;;4.40;2.30;;;;;;;23.65;41.13;98872.94;225210;1278;23586;-73
2023/05/28 15:53:26;;;;;;;5.60;2.70;;;;;;;23.66;41.51;98877.15;225197;1280;25551;-70
2023/05/28 15:58:28;;;;;;;4.10;2.50;;;;;;;23.64;41.94;98880.22;225255;1284;22556;-71
2023/05/28 16:03:31;;;;;;;5.50;2.30;;;;;;;23.59;41.50;98871.98;225225;1282;22548;-71
2023/05/28 16:08:34;;;;;;;4.70;2.50;;;;;;;23.61;41.86;98875.48;225248;1284;22530;-72
2023/05/28 16:13:40;;;;;;;2.90;2.50;;;;;;;23.61;41.83;98881.46;225233;1283;22660;-72
2023/05/28 16:18:43;;;;;;;4.50;2.50;;;;;;;23.49;41.94;98878.86;225168;1284;22611;-72
2023/05/28 16:23:46;;;;;;;3.70;2.60;;;;;;;23.27;42.84;98878.73;225204;1284;22551;-72
2023/05/28 16:28:49;;;;;;;4.90;2.60;;;;;;;23.14;43.17;98873.69;225211;1281;22534;-70
2023/05/28 16:33:51;;;;;;;4.90;2.70;;;;;;;23.08;43.00;98872.13;225244;1283;22551;-72
2023/05/28 16:38:53;;;;;;;5.50;2.50;;;;;;;22.99;43.32;98870.59;225312;1281;22549;-72
2023/05/28 16:43:56;;;;;;;4.20;2.50;;;;;;;22.93;43.35;98873.98;225216;1282;22661;-72
2023/05/28 16:49:00;;;;;;;5.90;2.50;;;;;;;22.83;43.08;98872.65;225272;1283;22550;-73
2023/05/28 16:54:02;;;;;;;3.40;2.10;;;;;;;22.68;43.29;98871.55;225270;1280;24938;-72
2023/05/28 16:59:05;;;;;;;7.70;2.70;;;;;;;22.41;43.62;98868.37;225222;1281;22547;-72
2023/05/28 17:04:07;;;;;;;3.10;2.20;;;;;;;22.18;44.56;98878.86;225236;1284;22565;-72
2023/05/28 17:09:09;;;;;;;3.70;2.20;;;;;;;21.93;45.21;98876.31;225151;1284;23315;-72
2023/05/28 17:14:12;;;;;;;4.40;2.00;;;;;;;21.91;45.73;98878.02;225203;1284;22547;-71
2023/05/28 17:19:17;;;;;;;4.20;2.10;;;;;;;22.32;46.07;98885.82;225236;1281;24221;-71
2023/05/28 17:24:20;;;;;;;5.00;2.30;;;;;;;22.98;46.02;98878.98;225226;1280;24226;-71
2023/05/28 17:29:23;;;;;;;3.00;2.30;;;;;;;23.39;45.51;98878.41;225239;1282;22713;-72
2023/05/28 17:34:25;;;;;;;6.30;4.40;;;;;;;23.63;44.78;98874.30;225241;1284;22554;-72
2023/05/28 17:39:28;;;;;;;3.20;2.50;;;;;;;23.53;44.16;98873.79;225258;1284;22534;-70
2023/05/28 17:44:32;;;;;;;3.30;2.40;;;;;;;22.92;43.91;98874.70;225259;1282;22721;-71
2023/05/28 17:49:46;;;;;;;4.10;2.30;;;;;;;22.17;44.03;98873.58;225264;1283;22571;-72
2023/05/28 17:54:49;;;;;;;3.30;2.10;;;;;;;21.55;44.81;98880.39;225197;1284;22558;-71
2023/05/28 17:59:51;;;;;;;3.40;2.20;;;;;;;21.04;45.53;98884.52;225256;1283;22557;-71
2023/05/28 18:04:57;;;;;;;3.90;2.10;;;;;;;20.63;46.06;98883.67;225227;1282;22682;-71
2023/05/28 18:09:59;;;;;;;4.00;2.10;;;;;;;20.30;46.55;98884.53;225226;1284;22577;-71
2023/05/28 18:15:01;;;;;;;4.40;2.20;;;;;;;19.96;46.87;98884.96;225232;1284;25284;-71
2023/05/28 18:20:07;;;;;;;4.30;2.10;;;;;;;19.66;47.16;98892.98;225270;1284;22657;-70
2023/05/28 18:25:10;;;;;;;4.10;1.70;;;;;;;19.36;47.52;98893.95;225252;1282;22546;-71
2023/05/28 18:30:13;;;;;;;4.20;2.20;;;;;;;19.06;47.93;98899.30;225197;1283;22548;-71
2023/05/28 18:35:17;;;;;;;10.00;6.00;;;;;;;18.74;48.32;98902.87;225224;1281;22588;-71
2023/05/28 18:40:19;;;;;;;3.60;2.10;;;;;;;18.43;48.70;98906.77;225241;1282;22479;-72
2023/05/28 18:45:22;;;;;;;2.90;2.10;;;;;;;18.15;49.02;98910.08;225258;1284;22741;-71
2023/05/28 18:50:24;;;;;;;7.10;2.60;;;;;;;17.86;49.32;98911.84;225140;1283;22581;-71
2023/05/28 18:55:26;;;;;;;6.30;2.70;;;;;;;17.58;49.85;98910.98;225255;1260;22614;-71
2023/05/28 19:00:29;;;;;;;2.90;2.20;;;;;;;17.33;50.35;98916.95;225236;1282;22557;-71
2023/05/28 19:05:32;;;;;;;5.10;2.60;;;;;;;17.08;50.82;98924.33;225275;1282;22562;-71
2023/05/28 19:10:34;;;;;;;5.10;3.00;;;;;;;16.87;51.16;98927.24;225266;1283;22554;-71
2023/05/28 19:15:36;;;;;;;5.90;4.60;;;;;;;16.65;51.54;98934.04;225263;1283;22557;-73
2023/05/28 19:20:39;;;;;;;3.80;2.80;;;;;;;16.42;52.24;98939.39;225223;1284;22547;-71
2023/05/28 19:25:44;;;;;;;3.70;2.80;;;;;;;16.22;52.63;98939.68;225208;1280;25358;-70
2023/05/28 19:30:46;;;;;;;4.80;2.80;;;;;;;16.01;53.11;98941.56;225220;1284;22648;-71
2023/05/28 19:35:48;;;;;;;4.10;2.50;;;;;;;15.83;53.58;98944.50;225212;1284;22545;-72
2023/05/28 19:40:51;;;;;;;4.10;2.70;;;;;;;15.66;53.94;98945.76;225260;1284;22567;-71
2023/05/28 19:45:53;;;;;;;4.70;2.70;;;;;;;15.49;54.30;98946.88;225223;1283;22558;-73
2023/05/28 19:50:56;;;;;;;4.50;2.50;;;;;;;15.33;54.70;98947.16;225289;1277;22609;-71
2023/05/28 19:55:58;;;;;;;4.10;2.60;;;;;;;15.15;55.15;98947.20;225247;1277;24379;-71
2023/05/28 20:01:00;;;;;;;6.30;2.30;;;;;;;14.98;55.53;98950.77;225270;1284;22565;-71
2023/05/28 20:06:03;;;;;;;4.10;2.00;;;;;;;14.81;55.84;98951.12;225122;1284;23350;-73
2023/05/28 20:11:05;;;;;;;5.20;2.90;;;;;;;14.65;55.97;98955.92;225241;1282;22584;-72
2023/05/28 20:16:08;;;;;;;2.80;2.20;;;;;;;14.50;56.37;98961.33;225224;1282;22553;-71
2023/05/28 20:21:10;;;;;;;4.10;3.10;;;;;;;14.38;56.67;98963.14;225216;1282;22541;-70
2023/05/28 20:26:12;;;;;;;3.80;2.50;;;;;;;14.26;56.96;98962.33;225248;1283;25374;-72
2023/05/28 20:31:15;;;;;;;5.30;2.30;;;;;;;14.13;57.14;98955.19;225271;1284;22580;-72
2023/05/28 20:36:19;;;;;;;2.80;2.30;;;;;;;14.01;57.38;98955.16;225221;1284;23773;-71
2023/05/28 20:41:31;;;;;;;4.10;2.70;;;;;;;13.89;57.91;98959.55;225272;1282;22600;-71
2023/05/28 20:46:38;;;;;;;5.10;2.60;;;;;;;13.74;58.19;98956.40;225284;1281;22554;-71
2023/05/28 20:51:42;;;;;;;4.90;3.20;;;;;;;13.60;58.58;98957.08;225304;1284;22562;-71
2023/05/28 20:56:57;;;;;;;3.70;3.00;;;;;;;13.44;58.87;98958.12;225225;1284;24225;-72
2023/05/28 21:01:59;;;;;;;4.60;2.90;;;;;;;13.31;59.39;98956.83;225211;1284;22554;-70
2023/05/28 21:07:12;;;;;;;5.80;3.20;;;;;;;13.19;59.75;98960.31;225212;1276;22553;-72
2023/05/28 21:12:24;;;;;;;4.80;2.90;;;;;;;13.08;60.18;98970.61;225228;1281;22622;-71
2023/05/28 21:17:33;;;;;;;5.50;3.30;;;;;;;12.96;60.34;98970.86;225246;1284;22554;-71
2023/05/28 21:22:45;;;;;;;6.90;3.60;;;;;;;12.85;60.81;98976.00;225233;1284;22546;-70
2023/05/28 21:27:59;;;;;;;3.80;3.30;;;;;;;12.75;61.23;98972.08;225232;1284;22546;-72
2023/05/28 21:33:04;;;;;;;7.00;3.30;;;;;;;12.64;61.40;98964.02;225301;1284;22638;-70
2023/05/28 21:38:07;;;;;;;7.80;3.70;;;;;;;12.55;61.64;98963.83;225233;1283;22555;-70
2023/05/28 21:43:13;;;;;;;7.20;3.40;;;;;;;12.47;61.90;98964.39;225205;1282;22555;-71
2023/05/28 21:48:17;;;;;;;4.80;3.30;;;;;;;12.40;62.17;98961.41;225175;1283;22597;-71
2023/05/28 21:53:23;;;;;;;9.00;3.80;;;;;;;12.33;62.48;98962.71;225283;1260;22550;-71
2023/05/28 21:58:28;;;;;;;4.90;3.40;;;;;;;12.28;62.55;98960.58;225207;1282;22653;-70
2023/05/28 22:03:40;;;;;;;7.30;3.50;;;;;;;12.24;62.69;98959.29;225176;1284;24348;-70
2023/05/28 22:08:45;;;;;;;5.20;3.80;;;;;;;12.20;62.84;98958.39;225211;1277;22739;-71
2023/05/28 22:13:54;;;;;;;5.70;3.80;;;;;;;12.17;62.98;98965.50;225212;1283;22546;-70
2023/05/28 22:19:12;;;;;;;5.00;3.20;;;;;;;12.15;63.39;98970.36;225258;1284;22571;-70
2023/05/28 22:24:14;;;;;;;8.30;3.70;;;;;;;12.12;63.34;98970.09;225236;1283;22564;-70
2023/05/28 22:29:20;;;;;;;6.20;3.90;;;;;;;12.08;63.37;98973.95;225235;1280;22557;-70
2023/05/28 22:34:40;;;;;;;10.20;3.90;;;;;;;12.03;63.60;98969.10;225233;1284;22558;-70
2023/05/28 22:39:42;;;;;;;6.70;3.70;;;;;;;11.96;63.76;98969.89;225132;1284;124701;-72
2023/05/28 22:44:45;;;;;;;5.60;4.00;;;;;;;11.91;63.91;98970.60;225257;1281;22546;-71
2023/05/28 22:49:58;;;;;;;7.40;3.80;;;;;;;11.84;64.23;98970.36;225247;1280;22538;-72
2023/05/28 22:55:13;;;;;;;6.00;4.10;;;;;;;11.77;64.46;98969.73;225320;1284;22536;-71
2023/05/28 23:00:25;;;;;;;6.40;4.20;;;;;;;11.68;64.73;98969.33;225227;1284;22549;-70
2023/05/28 23:05:36;;;;;;;6.50;4.30;;;;;;;11.60;64.93;98973.33;225261;1284;22553;-71
2023/05/28 23:10:46;;;;;;;7.90;4.10;;;;;;;11.52;65.38;98975.45;225330;1284;22608;-71
2023/05/28 23:15:55;;;;;;;7.90;3.80;;;;;;;11.43;65.37;98971.77;225237;1284;23703;-72
2023/05/28 23:21:08;;;;;;;5.50;3.80;;;;;;;11.34;65.60;98974.83;225268;1284;22562;-71
2023/05/28 23:26:51;;;;;;;7.60;3.80;;;;;;;11.25;65.98;98975.30;225261;1281;22554;-71
2023/05/28 23:32:00;;;;;;;7.30;4.40;;;;;;;11.14;66.24;98971.84;225277;1282;24281;-73
2023/05/28 23:37:06;;;;;;;7.40;4.50;;;;;;;11.04;66.51;98968.44;225299;1280;22546;-71
2023/05/28 23:42:31;;;;;;;5.80;4.30;;;;;;;10.96;66.80;98969.86;225266;1283;22586;-69
2023/05/28 23:47:40;;;;;;;6.60;4.40;;;;;;;10.86;67.05;98968.38;225296;1277;22654;-71
2023/05/28 23:52:44;;;;;;;5.80;4.80;;;;;;;10.75;67.60;98969.67;225339;1280;22535;-69
2023/05/28 23:57:47;;;;;;;5.90;4.80;;;;;;;10.66;67.93;98965.33;225261;1281;22551;-71
